ZSMUL FZSA-FZUA

Flight info

Callsign ZSMUL
Flight time N/A
Altitude 16000
Route KMB H325 KNG
Aircraft DC6/M-SDFGRWY/S

Departure

Time N/A
Airport Kamina Air Base (FZSA)

Arrival

Time 2026-05-01 07:33
Airport Kananga Airport (FZUA)
Time Latitude Longitude Altitude Speed Heading
2026-05-01 07:23 -6.23549 22.81671 13501 ft 258 kts 316°
2026-05-01 07:23 -6.20965 22.79061 12777 ft 269 kts 316°
2026-05-01 07:24 -6.19631 22.77714 12293 ft 278 kts 316°
2026-05-01 07:24 -6.18244 22.76313 11828 ft 285 kts 316°
2026-05-01 07:24 -6.16826 22.74881 11380 ft 290 kts 316°
2026-05-01 07:24 -6.15404 22.73445 10946 ft 294 kts 316°
2026-05-01 07:25 -6.13952 22.71980 10528 ft 296 kts 316°
2026-05-01 07:25 -6.12508 22.70521 10121 ft 298 kts 316°
2026-05-01 07:25 -6.11032 22.69031 9686 ft 300 kts 316°
2026-05-01 07:25 -6.09560 22.67546 9241 ft 301 kts 316°
2026-05-01 07:26 -6.08079 22.66051 8812 ft 301 kts 316°
2026-05-01 07:26 -6.06595 22.64552 8307 ft 303 kts 316°
2026-05-01 07:26 -6.05102 22.63048 7525 ft 311 kts 316°
2026-05-01 07:26 -6.03560 22.61490 6784 ft 316 kts 316°
2026-05-01 07:27 -6.01999 22.59915 6023 ft 319 kts 316°
2026-05-01 07:27 -6.00429 22.58332 5254 ft 320 kts 316°
2026-05-01 07:27 -5.98855 22.56744 4496 ft 319 kts 315°
2026-05-01 07:27 -5.97288 22.55163 3736 ft 318 kts 315°
2026-05-01 07:28 -5.95773 22.53634 3487 ft 299 kts 315°
2026-05-01 07:28 -5.94364 22.52212 3521 ft 275 kts 315°
2026-05-01 07:28 -5.93058 22.50896 3510 ft 256 kts 315°
2026-05-01 07:28 -5.91851 22.49679 3509 ft 241 kts 315°
2026-05-01 07:29 -5.90702 22.48504 3511 ft 228 kts 312°
2026-05-01 07:29 -5.90102 22.47102 3491 ft 217 kts 274°
2026-05-01 07:29 -5.90365 22.45685 3519 ft 204 kts 254°
2026-05-01 07:29 -5.90729 22.44329 3521 ft 197 kts 255°
2026-05-01 07:30 -5.91078 22.43014 3514 ft 191 kts 255°
2026-05-01 07:30 -5.91419 22.41741 3518 ft 185 kts 255°
2026-05-01 07:30 -5.91690 22.40517 3481 ft 179 kts 269°
2026-05-01 07:30 -5.91221 22.39419 3461 ft 170 kts 320°
2026-05-01 07:31 -5.90158 22.39135 3489 ft 157 kts 14°
2026-05-01 07:31 -5.88886 22.41690 3321 ft 131 kts 82°
2026-05-01 07:32 -5.88938 22.43446 2745 ft 125 kts 102°
2026-05-01 07:32 -5.89165 22.44294 2547 ft 126 kts 107°
2026-05-01 07:33 -5.89708 22.45978 2131 ft 126 kts 107°
2026-05-01 07:33 -5.89946 22.46726 2129 ft 99 kts 107°
2026-05-01 07:33 -5.90205 22.47538 2143 ft 16 kts 108°
2026-05-01 07:34 -5.90201 22.47601 2144 ft 6 kts 39°
2026-05-01 07:34 -5.90136 22.47629 2145 ft 9 kts 18°
2026-05-01 07:34 -5.90075 22.47665 2146 ft 9 kts 63°
2026-05-01 07:35 -5.90077 22.47707 2147 ft 3 kts 109°
2026-05-01 07:35 -5.90077 22.47708 2147 ft 0 kts 109°